Terminal Aerodrome Forecast
Issued by NWS

Home | Current Version | Previous Version | Graphics & Text | Print | Product List | Glossary On
Versions: 1 2 3 4 5 6 7 8 9 10 11 12 13 14 15 16 17 18 19
000
FTUS43 KFGF 240300 AAA
TAFBJI
TAF AMD
KBJI 240302Z 2403/2424 33006KT 5SM BR OVC004
      TEMPO 2403/2405 2SM BR
     FM241800 VRB05KT P6SM OVC008=

USA.gov is the U.S. government's official web portal to all federal, state and local government web resources and services.